Time;durP1;ratioP1;P1;durP2;ratioP2;P2;SDS_P1;SDS_P2;PMS_P1;PMS_P2;Temp;Humidity;BMP_temperature;BMP_pressure;BME280_temperature;BME280_humidity;BME280_pressure;Samples;Min_cycle;Max_cycle;Signal;HPM_P1;HPM_P2
2023/01/06 00:01:17;;;;;;;;;;;23.70;34.40;;;;;;4992066;28;20359;-65
2023/01/06 00:03:48;;;;;;;;;;;23.50;34.60;;;;;;5002553;28;19922;-64
2023/01/06 00:06:15;;;;;;;;;;;23.40;35.00;;;;;;4986179;28;19929;-63
2023/01/06 00:08:42;;;;;;;;;;;23.20;35.30;;;;;;4985583;28;19929;-63
2023/01/06 00:11:09;;;;;;;;;;;23.00;35.40;;;;;;4987113;28;19976;-63
2023/01/06 00:13:36;;;;;;;;;;;22.90;35.60;;;;;;4990201;28;19988;-64
2023/01/06 00:16:04;;;;;;;;;;;22.80;36.00;;;;;;4978989;28;19925;-64
2023/01/06 00:18:30;;;;;;;;;;;22.60;36.10;;;;;;4986605;28;19964;-63
2023/01/06 00:20:59;;;;;;;;;;;22.50;36.40;;;;;;4987838;28;19976;-63
2023/01/06 00:23:26;;;;;;;;;;;22.40;36.60;;;;;;4990695;28;19926;-64
2023/01/06 00:25:53;;;;;;;;;;;22.30;36.70;;;;;;5008268;28;19930;-63
2023/01/06 00:28:19;;;;;;;;;;;22.20;36.90;;;;;;4996864;28;19921;-63
2023/01/06 00:30:46;;;;;;;;;;;22.10;37.00;;;;;;4995858;28;19944;-63
2023/01/06 00:33:13;;;;;;;;;;;22.00;37.20;;;;;;4981428;28;19921;-63
2023/01/06 00:35:40;;;;;;;;;;;21.90;37.20;;;;;;4992425;28;19921;-62
2023/01/06 00:38:08;;;;;;;;;;;21.90;37.40;;;;;;4990605;28;19928;-64
2023/01/06 00:40:35;;;;;;;;;;;21.80;37.50;;;;;;4985130;28;19971;-63
2023/01/06 00:43:02;;;;;;;;;;;21.70;37.40;;;;;;4980140;28;20311;-63
2023/01/06 00:45:29;;;;;;;;;;;21.60;37.50;;;;;;5007167;28;19929;-63
2023/01/06 00:47:55;;;;;;;;;;;21.60;37.60;;;;;;4983092;28;19992;-63
2023/01/06 00:50:22;;;;;;;;;;;21.50;37.80;;;;;;4993964;28;20162;-63
2023/01/06 00:52:49;;;;;;;;;;;21.40;37.90;;;;;;4984354;28;19926;-64
2023/01/06 00:55:18;;;;;;;;;;;21.40;38.10;;;;;;4985429;28;20248;-63
2023/01/06 00:57:45;;;;;;;;;;;21.30;38.20;;;;;;4986116;28;20000;-63
2023/01/06 01:00:12;;;;;;;;;;;21.30;38.30;;;;;;4994787;28;19928;-63
2023/01/06 01:02:39;;;;;;;;;;;21.20;38.40;;;;;;4987408;28;19940;-63
2023/01/06 01:05:06;;;;;;;;;;;21.20;38.40;;;;;;5001464;28;19921;-64
2023/01/06 01:07:33;;;;;;;;;;;21.10;38.60;;;;;;4981816;28;20426;-63
2023/01/06 01:09:59;;;;;;;;;;;21.10;38.50;;;;;;4989629;28;19925;-62
2023/01/06 01:12:27;;;;;;;;;;;21.00;38.60;;;;;;4985886;28;19922;-64
2023/01/06 01:14:54;;;;;;;;;;;21.00;38.80;;;;;;4984073;28;19922;-64
2023/01/06 01:17:23;;;;;;;;;;;20.90;38.80;;;;;;4999685;28;19922;-64
2023/01/06 01:19:50;;;;;;;;;;;20.90;38.80;;;;;;4988386;28;19963;-65
2023/01/06 01:22:17;;;;;;;;;;;20.90;39.00;;;;;;4985821;28;19926;-62
2023/01/06 01:24:44;;;;;;;;;;;20.80;39.00;;;;;;4996554;28;19975;-63
2023/01/06 01:27:10;;;;;;;;;;;20.80;39.10;;;;;;4983616;28;20367;-64
2023/01/06 01:29:38;;;;;;;;;;;20.80;39.10;;;;;;4979534;28;19922;-64
2023/01/06 01:32:05;;;;;;;;;;;20.80;39.20;;;;;;4981780;28;19922;-63
2023/01/06 01:34:32;;;;;;;;;;;20.70;39.10;;;;;;4986621;28;19925;-64
2023/01/06 01:36:59;;;;;;;;;;;20.70;39.20;;;;;;4986463;28;19972;-63
2023/01/06 01:39:26;;;;;;;;;;;20.70;39.30;;;;;;4989952;28;19929;-64
2023/01/06 01:41:53;;;;;;;;;;;20.60;39.40;;;;;;4986381;28;19925;-64
2023/01/06 01:44:38;;;;;;;;;;;20.60;39.40;;;;;;4983456;28;19972;-64
2023/01/06 01:47:06;;;;;;;;;;;20.60;39.30;;;;;;4992673;28;19944;-64
2023/01/06 01:49:33;;;;;;;;;;;20.60;39.30;;;;;;5003856;28;20011;-63
2023/01/06 01:52:00;;;;;;;;;;;20.50;39.30;;;;;;4985205;28;20016;-64
2023/01/06 01:54:28;;;;;;;;;;;20.50;39.20;;;;;;4989395;28;19930;-65
2023/01/06 01:56:55;;;;;;;;;;;20.50;39.30;;;;;;4991546;28;20004;-64
2023/01/06 01:59:23;;;;;;;;;;;20.50;39.50;;;;;;5005746;28;19965;-64
2023/01/06 02:01:50;;;;;;;;;;;20.50;39.60;;;;;;4988063;28;19926;-64
2023/01/06 02:04:18;;;;;;;;;;;20.40;39.50;;;;;;4983347;28;19972;-64
2023/01/06 02:06:47;;;;;;;;;;;20.40;39.60;;;;;;5128793;23;19952;-63
2023/01/06 02:09:16;;;;;;;;;;;20.40;39.70;;;;;;5001690;28;19933;-64
2023/01/06 02:11:43;;;;;;;;;;;20.40;39.70;;;;;;5001257;28;19945;-63
2023/01/06 02:14:11;;;;;;;;;;;20.40;39.90;;;;;;4984359;28;19930;-64
2023/01/06 02:16:40;;;;;;;;;;;20.30;39.80;;;;;;5003830;28;19933;-64
2023/01/06 02:19:10;;;;;;;;;;;20.30;39.90;;;;;;5000195;28;19973;-63
2023/01/06 02:21:50;;;;;;;;;;;20.30;39.90;;;;;;4983242;28;19925;-63
2023/01/06 02:24:50;;;;;;;;;;;20.30;39.90;;;;;;4992037;28;19930;-63
2023/01/06 02:27:25;;;;;;;;;;;20.30;40.00;;;;;;4995865;28;19930;-63
2023/01/06 02:30:00;;;;;;;;;;;20.30;40.00;;;;;;4993665;28;19929;-63
2023/01/06 02:32:31;;;;;;;;;;;20.30;40.00;;;;;;4985537;28;19981;-63
2023/01/06 02:35:01;;;;;;;;;;;20.20;39.90;;;;;;4994292;28;19936;-63
2023/01/06 02:37:31;;;;;;;;;;;20.20;39.90;;;;;;5004715;28;19930;-63
2023/01/06 02:40:08;;;;;;;;;;;20.20;39.90;;;;;;4991578;28;19930;-63
2023/01/06 02:42:37;;;;;;;;;;;20.20;40.00;;;;;;4990235;28;19930;-63
2023/01/06 02:45:06;;;;;;;;;;;20.20;40.00;;;;;;4985310;28;19937;-63
2023/01/06 02:47:34;;;;;;;;;;;20.20;40.10;;;;;;4986385;28;19934;-63
2023/01/06 02:50:03;;;;;;;;;;;20.20;40.20;;;;;;4989355;28;19926;-63
2023/01/06 02:52:31;;;;;;;;;;;20.20;40.20;;;;;;4990848;28;19970;-64
2023/01/06 02:54:59;;;;;;;;;;;20.20;40.30;;;;;;4983729;28;20403;-62
2023/01/06 02:57:27;;;;;;;;;;;20.10;40.20;;;;;;5000128;28;19973;-65
2023/01/06 02:59:54;;;;;;;;;;;20.10;40.30;;;;;;4986464;28;19994;-64
2023/01/06 03:02:21;;;;;;;;;;;20.10;40.30;;;;;;4981475;28;19972;-62
2023/01/06 03:04:49;;;;;;;;;;;20.10;40.30;;;;;;4984007;28;19926;-63
2023/01/06 03:07:16;;;;;;;;;;;20.10;40.30;;;;;;4984625;28;19984;-63
2023/01/06 03:09:43;;;;;;;;;;;20.10;40.40;;;;;;5003638;28;19933;-63
2023/01/06 03:12:12;;;;;;;;;;;20.10;40.40;;;;;;4988242;28;20450;-64
2023/01/06 03:14:39;;;;;;;;;;;20.10;40.40;;;;;;4987744;28;19930;-62
2023/01/06 03:17:06;;;;;;;;;;;20.10;40.50;;;;;;4991793;28;19933;-64
2023/01/06 03:19:33;;;;;;;;;;;20.10;41.10;;;;;;4991289;28;19973;-64
2023/01/06 03:22:01;;;;;;;;;;;20.10;40.60;;;;;;5006596;28;19969;-64
2023/01/06 03:24:28;;;;;;;;;;;20.10;40.60;;;;;;4989898;28;19930;-63
2023/01/06 03:26:54;;;;;;;;;;;20.00;40.60;;;;;;4991752;28;19976;-64
2023/01/06 03:29:21;;;;;;;;;;;20.00;40.60;;;;;;4988294;28;19972;-64
2023/01/06 03:31:51;;;;;;;;;;;20.00;40.60;;;;;;4992522;28;19925;-63
2023/01/06 03:34:19;;;;;;;;;;;20.00;40.60;;;;;;5000027;28;19930;-64
2023/01/06 03:36:47;;;;;;;;;;;20.00;40.60;;;;;;4993572;28;19930;-63
2023/01/06 03:39:16;;;;;;;;;;;20.00;40.70;;;;;;4991681;28;19934;-64
2023/01/06 03:44:32;;;;;;;;;;;20.00;40.70;;;;;;4994948;28;19933;-63
2023/01/06 03:47:00;;;;;;;;;;;20.00;40.80;;;;;;4983380;28;19938;-63
2023/01/06 03:49:28;;;;;;;;;;;20.00;40.80;;;;;;5000790;28;19929;-63
2023/01/06 03:51:56;;;;;;;;;;;20.00;40.80;;;;;;4991648;28;19925;-63
2023/01/06 03:54:27;;;;;;;;;;;20.00;40.80;;;;;;4989856;28;20305;-64
2023/01/06 03:56:54;;;;;;;;;;;20.00;40.90;;;;;;4992024;28;19930;-64
2023/01/06 03:59:22;;;;;;;;;;;20.00;40.90;;;;;;5006273;28;20025;-64
2023/01/06 04:01:48;;;;;;;;;;;20.00;41.00;;;;;;4993009;28;19926;-64
2023/01/06 04:04:16;;;;;;;;;;;20.00;41.00;;;;;;5007381;28;19965;-65
2023/01/06 04:06:42;;;;;;;;;;;19.90;40.90;;;;;;4991077;28;20039;-62
2023/01/06 04:09:09;;;;;;;;;;;20.00;41.10;;;;;;4992261;28;19930;-62
2023/01/06 04:14:22;;;;;;;;;;;20.00;41.20;;;;;;4992367;28;19926;-62
2023/01/06 04:16:49;;;;;;;;;;;19.90;41.10;;;;;;5006871;28;19937;-61
2023/01/06 04:19:16;;;;;;;;;;;19.90;41.10;;;;;;5007064;28;19937;-61
2023/01/06 04:21:42;;;;;;;;;;;19.90;41.20;;;;;;4991892;28;19926;-62
2023/01/06 04:24:09;;;;;;;;;;;19.90;41.20;;;;;;4986849;28;20473;-62
2023/01/06 04:26:37;;;;;;;;;;;19.90;41.30;;;;;;5007774;28;19926;-62
2023/01/06 04:29:04;;;;;;;;;;;19.90;41.30;;;;;;4995319;28;19981;-62
2023/01/06 04:31:31;;;;;;;;;;;19.90;41.30;;;;;;4984686;28;19933;-62
2023/01/06 04:33:57;;;;;;;;;;;19.90;41.30;;;;;;4972723;28;19934;-62
2023/01/06 04:36:24;;;;;;;;;;;19.90;41.40;;;;;;4985913;28;20430;-63
2023/01/06 04:38:51;;;;;;;;;;;19.90;41.40;;;;;;4994749;28;20420;-62
2023/01/06 04:41:18;;;;;;;;;;;19.90;41.50;;;;;;4990268;28;19964;-63
2023/01/06 04:43:46;;;;;;;;;;;19.90;41.50;;;;;;4991738;28;19930;-62
2023/01/06 04:46:13;;;;;;;;;;;19.90;41.50;;;;;;4990531;28;19934;-62
2023/01/06 04:48:39;;;;;;;;;;;19.90;41.60;;;;;;5003192;28;19930;-63
2023/01/06 04:51:07;;;;;;;;;;;19.90;41.60;;;;;;4971344;28;19926;-62
2023/01/06 04:53:34;;;;;;;;;;;19.90;41.70;;;;;;4981726;28;19950;-62
2023/01/06 04:56:02;;;;;;;;;;;19.90;41.70;;;;;;4984737;28;19927;-62
2023/01/06 04:58:29;;;;;;;;;;;19.90;41.70;;;;;;4990331;28;19926;-62
2023/01/06 05:01:01;;;;;;;;;;;19.90;41.70;;;;;;4995952;28;19926;-62
2023/01/06 05:03:27;;;;;;;;;;;19.90;41.80;;;;;;4993698;28;19926;-62
2023/01/06 05:05:54;;;;;;;;;;;19.90;41.80;;;;;;4991406;28;19930;-63
2023/01/06 05:08:21;;;;;;;;;;;19.80;41.80;;;;;;4989553;28;19930;-62
2023/01/06 05:10:47;;;;;;;;;;;19.90;41.90;;;;;;4991793;28;19976;-62
2023/01/06 05:13:14;;;;;;;;;;;19.80;41.80;;;;;;4982652;28;20042;-63
2023/01/06 05:15:41;;;;;;;;;;;19.90;41.90;;;;;;4998343;28;20372;-62
2023/01/06 05:18:09;;;;;;;;;;;19.90;41.90;;;;;;5006759;28;19953;-62
2023/01/06 05:20:36;;;;;;;;;;;19.80;41.90;;;;;;4991943;28;19945;-62
2023/01/06 05:23:03;;;;;;;;;;;19.80;42.00;;;;;;5007148;28;19932;-63
2023/01/06 05:25:30;;;;;;;;;;;19.80;42.00;;;;;;5006877;28;19980;-62
2023/01/06 05:27:57;;;;;;;;;;;19.90;42.10;;;;;;4990545;28;20434;-62
2023/01/06 05:30:23;;;;;;;;;;;19.80;42.10;;;;;;4986341;28;19934;-62
2023/01/06 05:32:50;;;;;;;;;;;19.80;42.10;;;;;;5006289;28;20384;-62
2023/01/06 05:35:19;;;;;;;;;;;19.80;42.10;;;;;;4995818;28;19930;-63
2023/01/06 05:37:46;;;;;;;;;;;19.80;42.20;;;;;;4976756;28;20024;-62
2023/01/06 05:40:12;;;;;;;;;;;19.80;42.20;;;;;;4982854;28;19926;-62
2023/01/06 05:42:39;;;;;;;;;;;19.80;42.20;;;;;;4973378;28;19937;-63
2023/01/06 05:45:07;;;;;;;;;;;19.80;42.20;;;;;;4987400;28;19926;-63
2023/01/06 05:47:33;;;;;;;;;;;19.80;42.20;;;;;;5004429;28;19938;-63
2023/01/06 05:50:00;;;;;;;;;;;19.80;42.20;;;;;;4988591;28;19930;-64
2023/01/06 05:52:29;;;;;;;;;;;19.80;42.30;;;;;;5005994;28;19926;-64
2023/01/06 05:54:55;;;;;;;;;;;19.80;42.30;;;;;;4989645;28;19926;-63
2023/01/06 05:57:22;;;;;;;;;;;19.80;42.30;;;;;;4990852;28;19926;-63
2023/01/06 05:59:49;;;;;;;;;;;19.80;42.40;;;;;;4984537;28;19929;-63
2023/01/06 06:02:16;;;;;;;;;;;19.80;42.40;;;;;;4981727;28;19966;-63
2023/01/06 06:04:45;;;;;;;;;;;19.80;42.40;;;;;;4985202;28;19932;-63
2023/01/06 06:07:11;;;;;;;;;;;19.80;42.50;;;;;;5008286;28;19937;-64
2023/01/06 06:09:40;;;;;;;;;;;19.80;42.50;;;;;;4993639;28;19934;-63
2023/01/06 06:12:06;;;;;;;;;;;19.80;42.50;;;;;;5006641;28;19925;-63
2023/01/06 06:14:33;;;;;;;;;;;19.80;42.50;;;;;;4990566;28;19925;-63
2023/01/06 06:17:00;;;;;;;;;;;19.80;42.50;;;;;;4988830;28;19927;-62
2023/01/06 06:19:27;;;;;;;;;;;19.80;42.60;;;;;;4979418;28;19926;-63
2023/01/06 06:21:53;;;;;;;;;;;19.80;42.60;;;;;;4975009;28;20186;-63
2023/01/06 06:24:39;;;;;;;;;;;19.80;42.60;;;;;;5128420;27;19934;-61
2023/01/06 06:27:06;;;;;;;;;;;19.80;42.60;;;;;;5124335;27;19976;-62
2023/01/06 06:29:33;;;;;;;;;;;19.80;42.60;;;;;;5111092;28;20022;-62
2023/01/06 06:31:59;;;;;;;;;;;19.80;42.70;;;;;;5129403;28;19928;-62
2023/01/06 06:34:26;;;;;;;;;;;19.80;42.70;;;;;;5110876;28;20458;-62
2023/01/06 06:36:53;;;;;;;;;;;19.80;42.70;;;;;;5107803;28;19963;-62
2023/01/06 06:39:20;;;;;;;;;;;19.80;42.80;;;;;;5110487;28;19980;-62
2023/01/06 06:41:48;;;;;;;;;;;19.80;42.70;;;;;;5129331;28;19990;-63
2023/01/06 06:44:15;;;;;;;;;;;19.80;42.80;;;;;;5110557;28;20001;-63
2023/01/06 06:46:42;;;;;;;;;;;19.80;42.80;;;;;;5109615;28;19924;-62
2023/01/06 06:49:08;;;;;;;;;;;19.80;42.90;;;;;;5110737;28;20328;-62
2023/01/06 06:51:35;;;;;;;;;;;19.80;42.80;;;;;;5128608;28;19924;-62
2023/01/06 06:54:02;;;;;;;;;;;19.80;42.90;;;;;;5111201;28;20381;-62
2023/01/06 06:56:29;;;;;;;;;;;19.80;42.90;;;;;;5144752;27;19932;-62
2023/01/06 06:58:58;;;;;;;;;;;19.80;42.90;;;;;;5129331;28;19931;-62
2023/01/06 07:01:24;;;;;;;;;;;19.70;42.80;;;;;;5124554;28;19928;-62
2023/01/06 07:03:51;;;;;;;;;;;19.70;42.80;;;;;;5126951;28;19977;-62
2023/01/06 07:06:19;;;;;;;;;;;19.70;42.90;;;;;;5126683;28;19935;-62
2023/01/06 07:08:46;;;;;;;;;;;19.70;42.80;;;;;;5126245;28;19928;-63
2023/01/06 07:11:13;;;;;;;;;;;19.70;42.90;;;;;;5109139;28;19930;-63
2023/01/06 07:13:40;;;;;;;;;;;19.80;43.00;;;;;;5108994;28;19932;-62
2023/01/06 07:16:08;;;;;;;;;;;19.80;43.00;;;;;;5107647;28;19977;-62
2023/01/06 07:18:35;;;;;;;;;;;19.70;42.90;;;;;;5109983;28;19985;-62
2023/01/06 07:21:02;;;;;;;;;;;19.70;42.90;;;;;;5123672;28;19969;-62
2023/01/06 07:23:29;;;;;;;;;;;19.70;42.90;;;;;;5111063;28;19933;-61
2023/01/06 07:25:56;;;;;;;;;;;19.70;42.90;;;;;;5124999;27;19923;-62
2023/01/06 07:28:23;;;;;;;;;;;19.70;42.90;;;;;;5123776;28;20594;-63
2023/01/06 07:30:50;;;;;;;;;;;19.70;42.90;;;;;;5107454;28;19975;-62
2023/01/06 07:33:18;;;;;;;;;;;19.70;43.00;;;;;;5114127;28;20339;-62
2023/01/06 07:35:45;;;;;;;;;;;19.70;43.00;;;;;;5127783;27;19928;-62
2023/01/06 07:38:12;;;;;;;;;;;19.70;43.10;;;;;;5113966;28;19981;-62
2023/01/06 07:40:39;;;;;;;;;;;19.70;43.00;;;;;;5103460;28;19951;-62
2023/01/06 07:43:06;;;;;;;;;;;19.70;43.10;;;;;;5108393;28;19924;-62
2023/01/06 07:45:32;;;;;;;;;;;19.70;43.10;;;;;;5126366;27;19974;-62
2023/01/06 07:47:59;;;;;;;;;;;19.70;43.10;;;;;;5093351;28;19924;-62
2023/01/06 07:50:27;;;;;;;;;;;19.70;43.10;;;;;;5080066;28;19924;-61
2023/01/06 07:52:54;;;;;;;;;;;19.70;43.10;;;;;;5107864;27;19923;-62
2023/01/06 07:55:21;;;;;;;;;;;19.70;43.10;;;;;;5126855;27;19923;-62
2023/01/06 07:57:48;;;;;;;;;;;19.70;43.20;;;;;;5113343;28;20482;-62
2023/01/06 08:00:15;;;;;;;;;;;19.70;43.20;;;;;;5110602;28;19925;-62
2023/01/06 08:02:42;;;;;;;;;;;19.70;43.20;;;;;;5081049;28;19924;-62
2023/01/06 08:05:09;;;;;;;;;;;19.70;43.20;;;;;;5109399;28;20653;-62
2023/01/06 08:07:37;;;;;;;;;;;19.70;43.30;;;;;;5110325;28;19928;-62
2023/01/06 08:10:04;;;;;;;;;;;19.70;43.20;;;;;;5090184;28;19924;-62
2023/01/06 08:12:30;;;;;;;;;;;19.70;43.20;;;;;;5113348;27;19935;-62
2023/01/06 08:14:57;;;;;;;;;;;19.70;43.20;;;;;;5132290;27;19920;-63
2023/01/06 08:17:24;;;;;;;;;;;19.70;43.20;;;;;;5108617;27;19935;-62
2023/01/06 08:19:51;;;;;;;;;;;19.70;43.20;;;;;;5115457;27;19927;-62
2023/01/06 08:22:17;;;;;;;;;;;19.70;43.20;;;;;;5107615;27;19995;-61
2023/01/06 08:24:46;;;;;;;;;;;19.70;43.30;;;;;;5112132;27;19973;-62
2023/01/06 08:27:12;;;;;;;;;;;19.70;43.30;;;;;;5102182;28;19935;-62
2023/01/06 08:29:39;;;;;;;;;;;19.70;43.30;;;;;;5112548;27;19935;-61
2023/01/06 08:32:06;;;;;;;;;;;19.70;43.30;;;;;;5112025;27;19924;-62
2023/01/06 08:34:33;;;;;;;;;;;19.70;43.30;;;;;;5099705;28;19972;-62
2023/01/06 08:36:59;;;;;;;;;;;19.70;43.30;;;;;;5102871;27;19985;-62
2023/01/06 08:39:26;;;;;;;;;;;19.70;43.30;;;;;;5110252;27;19928;-63
2023/01/06 08:41:55;;;;;;;;;;;19.70;43.40;;;;;;5107964;27;19927;-62
2023/01/06 08:44:22;;;;;;;;;;;19.70;43.40;;;;;;5093860;28;19932;-62
2023/01/06 08:46:48;;;;;;;;;;;19.70;43.40;;;;;;5119672;27;19924;-63
2023/01/06 08:49:15;;;;;;;;;;;19.70;43.40;;;;;;5093330;28;19962;-61
2023/01/06 08:51:42;;;;;;;;;;;19.70;43.40;;;;;;5096798;28;19924;-62
2023/01/06 08:54:09;;;;;;;;;;;19.70;43.40;;;;;;5111278;28;19924;-62
2023/01/06 08:56:35;;;;;;;;;;;19.70;43.50;;;;;;5098039;28;20575;-62
2023/01/06 08:59:04;;;;;;;;;;;19.70;43.50;;;;;;5094088;27;19924;-62
2023/01/06 09:01:31;;;;;;;;;;;19.70;43.50;;;;;;5117922;27;19928;-63
2023/01/06 09:03:58;;;;;;;;;;;19.70;43.50;;;;;;5089721;27;20445;-63
2023/01/06 09:06:25;;;;;;;;;;;19.70;43.50;;;;;;5092378;28;19935;-63
2023/01/06 09:08:52;;;;;;;;;;;19.70;43.50;;;;;;5096008;28;19935;-63
2023/01/06 09:11:19;;;;;;;;;;;19.70;43.50;;;;;;5105848;27;19932;-64
2023/01/06 09:13:45;;;;;;;;;;;19.70;43.50;;;;;;5117491;27;19984;-62
2023/01/06 09:16:14;;;;;;;;;;;19.70;43.50;;;;;;5111712;27;19968;-63
2023/01/06 09:18:46;;;;;;;;;;;19.70;43.50;;;;;;5108202;27;19932;-63
2023/01/06 09:21:12;;;;;;;;;;;19.70;43.50;;;;;;5104969;27;19933;-63
2023/01/06 09:23:39;;;;;;;;;;;19.70;43.50;;;;;;5096399;28;19924;-62
2023/01/06 09:26:06;;;;;;;;;;;19.70;43.50;;;;;;5112283;27;20274;-63
2023/01/06 09:28:33;;;;;;;;;;;19.70;43.50;;;;;;5094389;28;19924;-63
2023/01/06 09:31:00;;;;;;;;;;;19.70;43.50;;;;;;5111649;28;19931;-63
2023/01/06 09:33:28;;;;;;;;;;;19.70;43.40;;;;;;5112461;28;19924;-63
2023/01/06 09:35:55;;;;;;;;;;;19.70;43.40;;;;;;5124651;27;19928;-63
2023/01/06 09:38:22;;;;;;;;;;;19.70;43.30;;;;;;5092214;28;20345;-62
2023/01/06 09:40:51;;;;;;;;;;;19.70;43.20;;;;;;5110169;28;19930;-62
2023/01/06 09:43:21;;;;;;;;;;;19.70;43.00;;;;;;5093884;28;19927;-62
2023/01/06 09:45:48;;;;;;;;;;;19.70;43.10;;;;;;5092956;28;20625;-62
2023/01/06 09:48:16;;;;;;;;;;;19.70;43.20;;;;;;5093105;28;19928;-62
2023/01/06 09:50:44;;;;;;;;;;;19.70;43.20;;;;;;5092997;28;20259;-62
2023/01/06 09:53:11;;;;;;;;;;;19.70;43.30;;;;;;5093377;28;20324;-62
2023/01/06 09:55:39;;;;;;;;;;;19.70;43.30;;;;;;5110881;28;19930;-60
2023/01/06 09:58:06;;;;;;;;;;;19.70;43.30;;;;;;5112369;28;19983;-62
2023/01/06 10:00:34;;;;;;;;;;;19.70;43.30;;;;;;5112455;28;20011;-61
2023/01/06 10:03:00;;;;;;;;;;;19.70;43.40;;;;;;5093556;28;19924;-61
2023/01/06 10:05:28;;;;;;;;;;;19.70;43.30;;;;;;5082850;28;19968;-60
2023/01/06 10:07:57;;;;;;;;;;;19.70;44.10;;;;;;5104148;27;19954;-61
2023/01/06 10:10:27;;;;;;;;;;;19.70;44.70;;;;;;5097253;27;19928;-60
2023/01/06 10:12:58;;;;;;;;;;;19.70;44.40;;;;;;5091009;28;19930;-61
2023/01/06 10:15:25;;;;;;;;;;;19.70;44.50;;;;;;5114854;27;19950;-60
2023/01/06 10:17:55;;;;;;;;;;;19.80;44.80;;;;;;5126986;27;19927;-61
2023/01/06 10:20:29;;;;;;;;;;;19.80;44.50;;;;;;5098645;28;19981;-61
2023/01/06 10:22:59;;;;;;;;;;;19.80;44.90;;;;;;5116050;28;19924;-60
2023/01/06 10:25:26;;;;;;;;;;;19.80;44.60;;;;;;5089135;28;19938;-61
2023/01/06 10:27:54;;;;;;;;;;;19.80;44.70;;;;;;5105738;28;19931;-61
2023/01/06 10:30:22;;;;;;;;;;;19.80;44.50;;;;;;5096298;28;19959;-60
2023/01/06 10:32:49;;;;;;;;;;;19.80;44.50;;;;;;5109623;28;19932;-61
2023/01/06 10:35:16;;;;;;;;;;;19.80;44.30;;;;;;5099186;28;20024;-60
2023/01/06 10:37:44;;;;;;;;;;;19.80;44.20;;;;;;5115424;28;19924;-60
2023/01/06 10:40:17;;;;;;;;;;;19.80;44.30;;;;;;5114526;28;20417;-59
2023/01/06 10:42:58;;;;;;;;;;;19.80;44.40;;;;;;5102304;28;19996;-60
2023/01/06 10:45:26;;;;;;;;;;;19.90;44.30;;;;;;5095483;28;19967;-60
2023/01/06 10:47:53;;;;;;;;;;;19.90;44.30;;;;;;5091445;28;19950;-60
2023/01/06 10:50:20;;;;;;;;;;;19.90;44.40;;;;;;5092118;28;19934;-60
2023/01/06 10:52:47;;;;;;;;;;;19.90;44.40;;;;;;5111263;28;19935;-60
2023/01/06 10:55:19;;;;;;;;;;;19.90;44.50;;;;;;5114015;28;19927;-62
2023/01/06 10:57:46;;;;;;;;;;;19.90;44.40;;;;;;5118906;28;20322;-60
2023/01/06 11:00:14;;;;;;;;;;;19.90;44.50;;;;;;5104774;28;20339;-60
2023/01/06 11:02:44;;;;;;;;;;;19.90;44.50;;;;;;5110778;28;19924;-60
2023/01/06 11:05:18;;;;;;;;;;;19.90;44.70;;;;;;5107025;28;19924;-61
2023/01/06 11:07:45;;;;;;;;;;;19.90;44.90;;;;;;5092918;28;19924;-62
2023/01/06 11:10:14;;;;;;;;;;;20.20;46.10;;;;;;5097597;28;19931;-60
2023/01/06 11:12:44;;;;;;;;;;;20.90;45.00;;;;;;5095882;28;19931;-61
2023/01/06 11:15:15;;;;;;;;;;;22.10;43.80;;;;;;5124658;27;19928;-60
2023/01/06 11:17:45;;;;;;;;;;;23.20;42.50;;;;;;5098808;27;19924;-66
2023/01/06 11:20:27;;;;;;;;;;;24.10;40.80;;;;;;5103634;27;19977;-65
2023/01/06 11:22:54;;;;;;;;;;;25.00;39.70;;;;;;5106422;27;19970;-63
2023/01/06 11:25:22;;;;;;;;;;;25.70;38.40;;;;;;5100348;27;19923;-60
2023/01/06 11:28:10;;;;;;;;;;;26.30;37.20;;;;;;5122423;27;19924;-61
2023/01/06 11:30:38;;;;;;;;;;;26.90;36.40;;;;;;5106531;27;19932;-60
2023/01/06 11:33:05;;;;;;;;;;;27.40;35.10;;;;;;5097142;28;19923;-61
2023/01/06 11:35:32;;;;;;;;;;;27.80;34.50;;;;;;5112711;27;20285;-60
2023/01/06 11:37:59;;;;;;;;;;;28.10;33.90;;;;;;5096548;28;19984;-59
2023/01/06 11:40:27;;;;;;;;;;;28.30;33.40;;;;;;5111996;27;19928;-63
2023/01/06 11:42:56;;;;;;;;;;;28.40;33.20;;;;;;5099427;27;19927;-59
2023/01/06 11:45:29;;;;;;;;;;;28.60;33.10;;;;;;5108956;27;19973;-64
2023/01/06 11:47:56;;;;;;;;;;;28.80;32.30;;;;;;5093490;28;19959;-64
2023/01/06 11:50:23;;;;;;;;;;;29.30;31.60;;;;;;5110388;27;19928;-62
2023/01/06 11:52:57;;;;;;;;;;;29.50;30.90;;;;;;5099645;28;20027;-63
2023/01/06 11:55:26;;;;;;;;;;;29.80;31.50;;;;;;5111585;27;20439;-63
2023/01/06 11:57:56;;;;;;;;;;;30.00;30.90;;;;;;5095641;27;19934;-67
2023/01/06 12:00:25;;;;;;;;;;;30.10;30.50;;;;;;5107359;27;20051;-69
2023/01/06 12:02:52;;;;;;;;;;;30.40;29.90;;;;;;5122157;27;20026;-66
2023/01/06 12:05:21;;;;;;;;;;;30.50;29.70;;;;;;5095736;28;20395;-68
2023/01/06 12:07:49;;;;;;;;;;;30.50;29.60;;;;;;5110383;27;19970;-68
2023/01/06 12:10:19;;;;;;;;;;;30.70;29.20;;;;;;5098819;27;19924;-67
2023/01/06 12:12:46;;;;;;;;;;;31.10;29.10;;;;;;5113889;27;19930;-66
2023/01/06 12:15:14;;;;;;;;;;;31.40;28.40;;;;;;5100410;27;20330;-67
2023/01/06 12:17:42;;;;;;;;;;;31.70;28.10;;;;;;5095013;27;19969;-67
2023/01/06 12:20:11;;;;;;;;;;;32.00;27.60;;;;;;5106996;27;19931;-67
2023/01/06 12:22:38;;;;;;;;;;;32.20;27.40;;;;;;5099748;28;19936;-66
2023/01/06 12:25:05;;;;;;;;;;;32.30;27.20;;;;;;5102409;27;19945;-66
2023/01/06 12:27:34;;;;;;;;;;;32.50;26.80;;;;;;5113670;28;19928;-66
2023/01/06 12:30:09;;;;;;;;;;;32.60;26.60;;;;;;5127689;27;19923;-67
2023/01/06 12:32:38;;;;;;;;;;;32.80;26.30;;;;;;5100186;27;19924;-67
2023/01/06 12:35:05;;;;;;;;;;;32.90;26.20;;;;;;5112585;27;20026;-68
2023/01/06 12:37:32;;;;;;;;;;;33.00;25.90;;;;;;5099568;27;19957;-67
2023/01/06 12:39:59;;;;;;;;;;;33.10;25.70;;;;;;5098210;27;19934;-64
2023/01/06 12:42:28;;;;;;;;;;;33.20;25.70;;;;;;5128155;27;19988;-64
2023/01/06 12:44:56;;;;;;;;;;;33.30;25.50;;;;;;5117481;27;19923;-68
2023/01/06 12:47:24;;;;;;;;;;;33.30;25.40;;;;;;5104331;27;19928;-70
2023/01/06 12:49:54;;;;;;;;;;;33.40;25.10;;;;;;5128301;27;19955;-68
2023/01/06 12:52:22;;;;;;;;;;;33.40;25.00;;;;;;5132259;27;19927;-71
2023/01/06 12:54:55;;;;;;;;;;;33.50;25.00;;;;;;5129484;27;19952;-70
2023/01/06 12:57:24;;;;;;;;;;;33.50;24.80;;;;;;5099987;27;20014;-71
2023/01/06 12:59:56;;;;;;;;;;;33.50;24.70;;;;;;5109906;27;19932;-70
2023/01/06 13:02:29;;;;;;;;;;;33.60;24.70;;;;;;5128352;27;19973;-71
2023/01/06 13:05:11;;;;;;;;;;;33.60;24.50;;;;;;5131416;27;19944;-66
2023/01/06 13:07:39;;;;;;;;;;;33.60;24.50;;;;;;5118577;27;19932;-69
2023/01/06 13:10:10;;;;;;;;;;;33.60;24.50;;;;;;5095836;28;19924;-75
2023/01/06 13:12:51;;;;;;;;;;;33.60;24.40;;;;;;5103231;27;19982;-70
2023/01/06 13:15:19;;;;;;;;;;;33.70;24.30;;;;;;5101833;27;19966;-73
2023/01/06 13:17:47;;;;;;;;;;;33.60;24.40;;;;;;5117270;27;20361;-72
2023/01/06 13:20:17;;;;;;;;;;;33.70;24.20;;;;;;5110318;27;20470;-68
2023/01/06 13:22:47;;;;;;;;;;;33.60;24.30;;;;;;5112509;27;19923;-73
2023/01/06 13:25:27;;;;;;;;;;;33.60;24.10;;;;;;5128474;27;20021;-67
2023/01/06 13:27:56;;;;;;;;;;;33.60;24.10;;;;;;5101730;27;19985;-71
2023/01/06 13:30:28;;;;;;;;;;;33.60;24.00;;;;;;5103433;27;19923;-70
2023/01/06 13:33:00;;;;;;;;;;;33.60;23.90;;;;;;5128522;27;19923;-68
2023/01/06 13:35:34;;;;;;;;;;;33.70;23.90;;;;;;5121515;27;19976;-67
2023/01/06 13:38:05;;;;;;;;;;;33.80;23.90;;;;;;5121408;27;19971;-68
2023/01/06 13:40:33;;;;;;;;;;;33.80;24.10;;;;;;5114698;27;19923;-73
2023/01/06 13:43:01;;;;;;;;;;;33.40;24.10;;;;;;5099022;28;19949;-73
2023/01/06 13:45:28;;;;;;;;;;;33.40;23.90;;;;;;5117891;27;19984;-65
2023/01/06 13:47:55;;;;;;;;;;;33.50;23.90;;;;;;5115767;27;19931;-69
2023/01/06 13:50:21;;;;;;;;;;;33.50;23.70;;;;;;5119790;27;19923;-66
2023/01/06 13:52:49;;;;;;;;;;;33.50;23.70;;;;;;5113293;27;19936;-70
2023/01/06 13:55:24;;;;;;;;;;;33.50;23.70;;;;;;5113941;27;20366;-70
2023/01/06 13:57:51;;;;;;;;;;;33.60;23.60;;;;;;5120286;27;19923;-68
2023/01/06 14:00:23;;;;;;;;;;;33.60;23.60;;;;;;5097376;27;20149;-71
2023/01/06 14:03:00;;;;;;;;;;;33.60;23.50;;;;;;5111255;27;19927;-73
2023/01/06 14:05:45;;;;;;;;;;;33.50;23.50;;;;;;5116247;27;20106;-66
2023/01/06 14:08:16;;;;;;;;;;;33.50;23.50;;;;;;5117694;27;19927;-67
2023/01/06 14:10:43;;;;;;;;;;;33.60;23.50;;;;;;5099764;28;19924;-72
2023/01/06 14:13:17;;;;;;;;;;;33.60;23.60;;;;;;5116799;27;19923;-73
2023/01/06 14:15:54;;;;;;;;;;;33.50;23.60;;;;;;5116880;27;20274;-65
2023/01/06 14:18:29;;;;;;;;;;;33.50;23.50;;;;;;5128040;27;19959;-77
2023/01/06 14:21:01;;;;;;;;;;;33.60;23.50;;;;;;5123202;27;19930;-69
2023/01/06 14:23:29;;;;;;;;;;;33.60;23.40;;;;;;5106449;28;20034;-69
2023/01/06 14:25:56;;;;;;;;;;;33.10;23.70;;;;;;5098036;28;19924;-69
2023/01/06 14:28:24;;;;;;;;;;;32.60;23.90;;;;;;5110935;28;19977;-69